Holly Ann — WDE9094 — position and weather

sailwx.info

Track history (hours):
 
Tides and Currents Weather Stations Pressure Air Temp Water Temp Dewpoint Dewpoint Depression Visibility Wind Speed Wind Dir Waves Ship Positions

Holly Ann

Owner: Manke Tug and Barge Co., Inc., Shelton, WA. More information available from US FCC via Universal Licensing System and Coast Guard Vessel Documentation Center.

Last reported at 2016-Jul-29 17:33 UTC. Time now 2016-Jul-29 17:58 UTC.
Position N 47°33' W 122°21'.

; draft 4.5 m.

Type: Towing. MMSI: 367413350.

Date/timePositionNaut miles runAvg speedWind from/ knotsBaromVisibWave heightAir tempDewpointWater temp
2016-Jul-29 17:33N 47°33' W 122°21'0 0.0
2016-Jul-29 16:33N 47°33' W 122°21'0 0.0
2016-Jul-29 15:33N 47°33' W 122°21'0 0.0
2016-Jul-29 14:33N 47°33' W 122°21'3 3.5
2016-Jul-29 13:34N 47°35' W 122°25'8 8.4
2016-Jul-29 12:33N 47°28' W 122°31'8 8.0
2016-Jul-29 11:33N 47°20' W 122°33'8 0.4
2016-Jul-28 18:04N 47°13' W 122°36'510.4
2016-Jul-28 17:33N 47°17' W 122°32'8 8.4
2016-Jul-28 16:33N 47°25' W 122°32'8 8.1
2016-Jul-28 15:33N 47°33' W 122°28'8 8.2
2016-Jul-28 14:33N 47°41' W 122°25'0 0.2
2016-Jul-28 13:33N 47°41' W 122°25'0 0.0
2016-Jul-28 12:33N 47°41' W 122°25'0 0.0
2016-Jul-28 11:33N 47°41' W 122°25'0 0.0
2016-Jul-28 10:33N 47°41' W 122°25'2 2.4
2016-Jul-28 09:33N 47°44' W 122°25'8 7.7
2016-Jul-28 08:33N 47°51' W 122°23'9 8.5
2016-Jul-28 07:33N 47°58' W 122°16'4 3.6
2016-Jul-28 06:25N 48°01' W 122°11'0 0.1
2016-Jul-28 05:33N 48°01' W 122°11'0 0.0
2016-Jul-28 04:33N 48°01' W 122°11'0 0.0
2016-Jul-28 03:17N 48°01' W 122°11'0 0.1
2016-Jul-28 02:33N 48°01' W 122°11'0 0.0
2016-Jul-28 00:33N 48°01' W 122°11'0 0.0
2016-Jul-27 23:31N 48°01' W 122°11'0 0.0
2016-Jul-27 22:33N 48°01' W 122°11'0 0.0
2016-Jul-27 21:33N 48°01' W 122°11'0 0.0
2016-Jul-27 20:33N 48°01' W 122°11'0 0.0
2016-Jul-27 19:32N 48°01' W 122°11'0 0.0
2016-Jul-27 18:18N 48°01' W 122°11'0 0.0
2016-Jul-27 17:31N 48°01' W 122°11'0 0.0
2016-Jul-27 16:30N 48°01' W 122°11'0 0.0
2016-Jul-27 11:19N 48°01' W 122°11'0 0.0
2016-Jul-27 09:29N 48°01' W 122°11'1 0.3
2016-Jul-27 05:31N 48°01' W 122°13'6 6.2
2016-Jul-27 04:33N 47°57' W 122°19'5 5.0
2016-Jul-27 03:33N 47°53' W 122°22'6 6.2
2016-Jul-27 02:33N 47°47' W 122°25'6 6.4
2016-Jul-27 01:33N 47°40' W 122°26'7 6.5
2016-Jul-27 00:33N 47°34' W 122°28'7 7.0
2016-Jul-26 23:33N 47°27' W 122°31'7 7.5
2016-Jul-26 22:33N 47°20' W 122°33'8 7.9
2016-Jul-26 21:33N 47°12' W 122°37'4 0.2
2016-Jul-26 01:33N 47°16' W 122°33'9 8.8
2016-Jul-26 00:33N 47°25' W 122°32'8 7.8
2016-Jul-25 23:33N 47°32' W 122°28'5 5.1
2016-Jul-25 22:34N 47°34' W 122°21'0 0.0
2016-Jul-25 21:33N 47°34' W 122°21'0 0.0
2016-Jul-25 20:33N 47°34' W 122°21'0 0.0
2016-Jul-25 19:33N 47°34' W 122°21'0 0.0
2016-Jul-25 18:33N 47°34' W 122°21'0 0.0
2016-Jul-25 17:33N 47°34' W 122°21'0 0.0
2016-Jul-25 16:34N 47°34' W 122°21'0 0.0
2016-Jul-25 15:33N 47°34' W 122°21'0 0.0
2016-Jul-25 14:33N 47°34' W 122°21'0 0.1
2016-Jul-25 13:33N 47°34' W 122°21'2 2.4
2016-Jul-25 12:34N 47°36' W 122°23'5 4.7
2016-Jul-25 11:33N 47°33' W 122°28'5 4.6
2016-Jul-25 10:33N 47°28' W 122°30'6 6.0
2016-Jul-25 09:33N 47°22' W 122°32'8 7.7
2016-Jul-25 08:33N 47°15' W 122°34'  
2016-Jul-21 10:23N 47°11' W 122°39'7 8.9
2016-Jul-21 09:33N 47°17' W 122°33'8 7.6
2016-Jul-21 08:33N 47°25' W 122°32'7 7.2
2016-Jul-21 07:33N 47°32' W 122°28'6 5.6
2016-Jul-21 06:33N 47°35' W 122°22'2 2.3
2016-Jul-21 05:33N 47°33' W 122°21'0 0.0
2016-Jul-21 04:33N 47°33' W 122°21'0 0.0
2016-Jul-21 03:33N 47°33' W 122°21'0 0.0
2016-Jul-21 02:33N 47°33' W 122°21'0 0.0
2016-Jul-21 01:34N 47°33' W 122°21'0 0.0
2016-Jul-21 00:33N 47°33' W 122°21'0 0.0
2016-Jul-20 23:34N 47°33' W 122°21'0 0.0
2016-Jul-20 22:33N 47°33' W 122°21'0 0.0
2016-Jul-20 21:34N 47°33' W 122°21'0 0.3
2016-Jul-20 20:33N 47°34' W 122°21'3 2.7
2016-Jul-20 19:33N 47°36' W 122°23'3 3.4
2016-Jul-20 18:33N 47°34' W 122°27'4 4.4
2016-Jul-20 17:33N 47°30' W 122°30'6 5.7
2016-Jul-20 16:33N 47°24' W 122°32'8 7.8
2016-Jul-20 15:33N 47°16' W 122°33'  
Track history (hours):
 
Tides and Currents Weather Stations Pressure Air Temp Water Temp Dewpoint Dewpoint Depression Visibility Wind Speed Wind Dir Waves Ship Positions

Holly Ann

Owner: Manke Tug and Barge Co., Inc., Shelton, WA. More information available from US FCC via Universal Licensing System and Coast Guard Vessel Documentation Center.

Last reported at 2016-Jul-29 17:33 UTC. Time now 2016-Jul-29 17:58 UTC.
Position N 47°33' W 122°21'.

; draft 4.5 m.

Type: Towing. MMSI: 367413350.

Date/timePositionNaut miles runAvg speedWind from/ knotsBaromVisibWave heightAir tempDewpointWater temp
2016-Jul-29 17:33N 47°33' W 122°21'0 0.0
2016-Jul-29 16:33N 47°33' W 122°21'0 0.0
2016-Jul-29 15:33N 47°33' W 122°21'0 0.0
2016-Jul-29 14:33N 47°33' W 122°21'3 3.5
2016-Jul-29 13:34N 47°35' W 122°25'8 8.4
2016-Jul-29 12:33N 47°28' W 122°31'8 8.0
2016-Jul-29 11:33N 47°20' W 122°33'8 0.4
2016-Jul-28 18:04N 47°13' W 122°36'510.4
2016-Jul-28 17:33N 47°17' W 122°32'8 8.4
2016-Jul-28 16:33N 47°25' W 122°32'8 8.1
2016-Jul-28 15:33N 47°33' W 122°28'8 8.2
2016-Jul-28 14:33N 47°41' W 122°25'0 0.2
2016-Jul-28 13:33N 47°41' W 122°25'0 0.0
2016-Jul-28 12:33N 47°41' W 122°25'0 0.0
2016-Jul-28 11:33N 47°41' W 122°25'0 0.0
2016-Jul-28 10:33N 47°41' W 122°25'2 2.4
2016-Jul-28 09:33N 47°44' W 122°25'8 7.7
2016-Jul-28 08:33N 47°51' W 122°23'9 8.5
2016-Jul-28 07:33N 47°58' W 122°16'4 3.6
2016-Jul-28 06:25N 48°01' W 122°11'0 0.1
2016-Jul-28 05:33N 48°01' W 122°11'0 0.0
2016-Jul-28 04:33N 48°01' W 122°11'0 0.0
2016-Jul-28 03:17N 48°01' W 122°11'0 0.1
2016-Jul-28 02:33N 48°01' W 122°11'0 0.0
2016-Jul-28 00:33N 48°01' W 122°11'0 0.0
2016-Jul-27 23:31N 48°01' W 122°11'0 0.0
2016-Jul-27 22:33N 48°01' W 122°11'0 0.0
2016-Jul-27 21:33N 48°01' W 122°11'0 0.0
2016-Jul-27 20:33N 48°01' W 122°11'0 0.0
2016-Jul-27 19:32N 48°01' W 122°11'0 0.0
2016-Jul-27 18:18N 48°01' W 122°11'0 0.0
2016-Jul-27 17:31N 48°01' W 122°11'0 0.0
2016-Jul-27 16:30N 48°01' W 122°11'0 0.0
2016-Jul-27 11:19N 48°01' W 122°11'0 0.0
2016-Jul-27 09:29N 48°01' W 122°11'1 0.3
2016-Jul-27 05:31N 48°01' W 122°13'6 6.2
2016-Jul-27 04:33N 47°57' W 122°19'5 5.0
2016-Jul-27 03:33N 47°53' W 122°22'6 6.2
2016-Jul-27 02:33N 47°47' W 122°25'6 6.4
2016-Jul-27 01:33N 47°40' W 122°26'7 6.5
2016-Jul-27 00:33N 47°34' W 122°28'7 7.0
2016-Jul-26 23:33N 47°27' W 122°31'7 7.5
2016-Jul-26 22:33N 47°20' W 122°33'8 7.9
2016-Jul-26 21:33N 47°12' W 122°37'4 0.2
2016-Jul-26 01:33N 47°16' W 122°33'9 8.8
2016-Jul-26 00:33N 47°25' W 122°32'8 7.8
2016-Jul-25 23:33N 47°32' W 122°28'5 5.1
2016-Jul-25 22:34N 47°34' W 122°21'0 0.0
2016-Jul-25 21:33N 47°34' W 122°21'0 0.0
2016-Jul-25 20:33N 47°34' W 122°21'0 0.0
2016-Jul-25 19:33N 47°34' W 122°21'0 0.0
2016-Jul-25 18:33N 47°34' W 122°21'0 0.0
2016-Jul-25 17:33N 47°34' W 122°21'0 0.0
2016-Jul-25 16:34N 47°34' W 122°21'0 0.0
2016-Jul-25 15:33N 47°34' W 122°21'0 0.0
2016-Jul-25 14:33N 47°34' W 122°21'0 0.1
2016-Jul-25 13:33N 47°34' W 122°21'2 2.4
2016-Jul-25 12:34N 47°36' W 122°23'5 4.7
2016-Jul-25 11:33N 47°33' W 122°28'5 4.6
2016-Jul-25 10:33N 47°28' W 122°30'6 6.0
2016-Jul-25 09:33N 47°22' W 122°32'8 7.7
2016-Jul-25 08:33N 47°15' W 122°34'  
2016-Jul-21 10:23N 47°11' W 122°39'7 8.9
2016-Jul-21 09:33N 47°17' W 122°33'8 7.6
2016-Jul-21 08:33N 47°25' W 122°32'7 7.2
2016-Jul-21 07:33N 47°32' W 122°28'6 5.6
2016-Jul-21 06:33N 47°35' W 122°22'2 2.3
2016-Jul-21 05:33N 47°33' W 122°21'0 0.0
2016-Jul-21 04:33N 47°33' W 122°21'0 0.0
2016-Jul-21 03:33N 47°33' W 122°21'0 0.0
2016-Jul-21 02:33N 47°33' W 122°21'0 0.0
2016-Jul-21 01:34N 47°33' W 122°21'0 0.0
2016-Jul-21 00:33N 47°33' W 122°21'0 0.0
2016-Jul-20 23:34N 47°33' W 122°21'0 0.0
2016-Jul-20 22:33N 47°33' W 122°21'0 0.0
2016-Jul-20 21:34N 47°33' W 122°21'0 0.3
2016-Jul-20 20:33N 47°34' W 122°21'3 2.7
2016-Jul-20 19:33N 47°36' W 122°23'3 3.4
2016-Jul-20 18:33N 47°34' W 122°27'4 4.4
2016-Jul-20 17:33N 47°30' W 122°30'6 5.7
2016-Jul-20 16:33N 47°24' W 122°32'8 7.8
2016-Jul-20 15:33N 47°16' W 122°33'  

Dump ship's entire track history